Time;durP1;ratioP1;P1;durP2;ratioP2;P2;SDS_P1;SDS_P2;PMS_P1;PMS_P2;Temp;Humidity;BMP_temperature;BMP_pressure;BME280_temperature;BME280_humidity;BME280_pressure;Samples;Min_cycle;Max_cycle;Signal;HPM_P1;HPM_P2
2021/07/27 00:00:09;;;;;;;;;;;;;;;25.12;53.14;101183.00;5027700;28;19917;-88
2021/07/27 00:02:34;;;;;;;;;;;;;;;24.96;53.59;101178.22;5027210;28;19924;-89
2021/07/27 00:05:00;;;;;;;;;;;;;;;25.61;51.92;101188.09;5026571;28;20370;-89
2021/07/27 00:07:25;;;;;;;;;;;;;;;25.91;50.78;101189.47;5026395;28;19984;-89
2021/07/27 00:09:50;;;;;;;;;;;;;;;25.43;52.22;101185.38;5026373;28;19917;-90
2021/07/27 00:12:16;;;;;;;;;;;;;;;25.00;53.82;101189.84;5027318;28;19917;-90
2021/07/27 00:14:41;;;;;;;;;;;;;;;25.33;52.62;101179.91;5025969;28;20050;-90
2021/07/27 00:17:06;;;;;;;;;;;;;;;25.04;53.62;101182.97;5026801;28;19917;-88
2021/07/27 00:19:32;;;;;;;;;;;;;;;25.14;53.22;101178.19;5026356;28;19941;-89
2021/07/27 00:21:57;;;;;;;;;;;;;;;25.21;53.13;101181.19;5027020;28;20392;-89
2021/07/27 00:24:26;;;;;;;;;;;;;;;25.27;52.94;101175.00;5027899;28;19967;-90
2021/07/27 00:26:51;;;;;;;;;;;;;;;24.99;54.02;101185.34;5033958;28;19979;-90
2021/07/27 00:29:16;;;;;;;;;;;;;;;24.84;54.46;101185.03;5037954;28;19925;-89
2021/07/27 00:31:42;;;;;;;;;;;;;;;25.37;52.91;101183.25;5042109;28;19909;-90
2021/07/27 00:34:07;;;;;;;;;;;;;;;25.51;52.21;101179.88;5039731;28;19957;-89
2021/07/27 00:36:32;;;;;;;;;;;;;;;25.13;53.44;101174.53;5033075;28;19959;-89
2021/07/27 00:38:58;;;;;;;;;;;;;;;25.16;53.42;101175.28;5027846;28;20378;-89
2021/07/27 00:41:23;;;;;;;;;;;;;;;25.33;53.04;101179.06;5026866;28;19925;-90
2021/07/27 00:43:48;;;;;;;;;;;;;;;25.41;52.67;101177.22;5026230;28;19923;-88
2021/07/27 00:46:14;;;;;;;;;;;;;;;25.86;51.19;101172.44;5026372;28;20255;-89
2021/07/27 00:48:39;;;;;;;;;;;;;;;25.54;51.91;101170.38;5026038;28;19917;-89
2021/07/27 00:51:04;;;;;;;;;;;;;;;25.34;52.90;101167.81;5026531;28;19928;-89
2021/07/27 00:53:29;;;;;;;;;;;;;;;25.43;52.80;101171.53;5025549;28;19921;-89
2021/07/27 00:55:55;;;;;;;;;;;;;;;24.75;54.89;101160.03;5027046;28;19940;-89
2021/07/27 00:58:20;;;;;;;;;;;;;;;25.49;52.47;101167.25;5027364;28;19920;-89
2021/07/27 01:00:45;;;;;;;;;;;;;;;25.52;52.16;101161.38;5025509;28;20382;-89
2021/07/27 01:03:11;;;;;;;;;;;;;;;25.41;52.44;101160.59;5026253;28;19921;-89
2021/07/27 01:05:36;;;;;;;;;;;;;;;25.61;51.70;101154.84;5025560;28;19936;-89
2021/07/27 01:08:02;;;;;;;;;;;;;;;25.67;51.44;101153.31;5025566;28;19921;-88
2021/07/27 01:10:27;;;;;;;;;;;;;;;25.47;52.14;101162.72;5026326;28;19996;-90
2021/07/27 01:12:53;;;;;;;;;;;;;;;25.21;53.17;101156.25;5026471;28;19924;-89
2021/07/27 01:15:18;;;;;;;;;;;;;;;25.34;52.50;101156.75;5025926;28;20267;-90
2021/07/27 01:17:44;;;;;;;;;;;;;;;25.25;53.03;101153.00;5026226;28;19913;-89
2021/07/27 01:44:27;;;;;;;;;;;;;;;24.98;54.22;101136.53;5043836;28;19950;-89
2021/07/27 01:46:53;;;;;;;;;;;;;;;24.64;55.19;101134.50;5025435;28;19917;-89
2021/07/27 01:49:18;;;;;;;;;;;;;;;24.96;54.25;101128.41;5043126;28;19970;-89
2021/07/27 01:51:44;;;;;;;;;;;;;;;24.65;55.48;101128.81;5025569;28;19925;-90
2021/07/27 01:54:12;;;;;;;;;;;;;;;24.60;55.85;101122.88;5026243;28;19917;-90
2021/07/27 01:56:38;;;;;;;;;;;;;;;24.79;55.29;101126.50;5026171;28;19939;-88
2021/07/27 01:59:03;;;;;;;;;;;;;;;24.59;55.72;101127.56;5025067;28;19917;-87
2021/07/27 02:01:28;;;;;;;;;;;;;;;24.07;57.36;101130.06;5025471;28;19960;-89
2021/07/27 02:03:56;;;;;;;;;;;;;;;23.99;57.76;101135.47;5025508;28;20227;-90
2021/07/27 02:06:22;;;;;;;;;;;;;;;24.03;57.68;101123.97;5025733;28;19928;-89
2021/07/27 02:08:47;;;;;;;;;;;;;;;24.63;55.79;101122.56;5025384;28;19917;-90
2021/07/27 02:11:13;;;;;;;;;;;;;;;24.31;56.78;101123.94;5025875;28;19917;-89
2021/07/27 02:13:47;;;;;;;;;;;;;;;24.13;57.55;101123.91;5025771;28;19917;-90
2021/07/27 02:16:13;;;;;;;;;;;;;;;24.28;57.01;101118.72;5025218;28;20385;-89
2021/07/27 02:18:38;;;;;;;;;;;;;;;24.03;58.35;101129.50;5025136;28;19913;-87
2021/07/27 02:21:03;;;;;;;;;;;;;;;23.75;58.96;101122.19;5025453;28;20004;-89
2021/07/27 02:23:29;;;;;;;;;;;;;;;23.97;57.95;101126.50;5025761;28;20272;-90
2021/07/27 02:25:54;;;;;;;;;;;;;;;24.40;57.17;101127.69;5025493;28;20336;-90
2021/07/27 02:28:20;;;;;;;;;;;;;;;24.14;57.88;101117.38;5025245;28;19917;-90
2021/07/27 02:30:49;;;;;;;;;;;;;;;24.05;58.37;101115.50;5025259;28;19925;-89
2021/07/27 02:33:15;;;;;;;;;;;;;;;23.76;59.54;101121.19;5026910;28;19963;-85
2021/07/27 02:35:41;;;;;;;;;;;;;;;24.00;58.52;101118.75;5045402;28;19917;-91
2021/07/27 02:38:06;;;;;;;;;;;;;;;23.56;59.79;101121.25;5027564;28;19976;-90
2021/07/27 02:40:32;;;;;;;;;;;;;;;23.14;61.89;101127.19;5027845;28;19921;-89
2021/07/27 02:43:02;;;;;;;;;;;;;;;23.58;60.09;101124.72;5028033;28;20305;-89
2021/07/27 02:45:27;;;;;;;;;;;;;;;23.86;59.14;101127.56;5023834;28;19963;-89
2021/07/27 02:47:53;;;;;;;;;;;;;;;23.82;58.40;101121.44;5028902;28;19917;-89
2021/07/27 02:50:18;;;;;;;;;;;;;;;24.64;56.08;101128.97;5028190;28;19920;-89
2021/07/27 02:52:43;;;;;;;;;;;;;;;24.21;57.93;101128.66;5029989;28;19921;-89
2021/07/27 02:55:12;;;;;;;;;;;;;;;24.39;56.95;101121.25;5029465;28;19937;-87
2021/07/27 02:57:38;;;;;;;;;;;;;;;24.09;58.02;101118.84;5030473;28;19988;-89
2021/07/27 03:00:04;;;;;;;;;;;;;;;23.33;60.29;101123.53;5030893;28;19929;-89
2021/07/27 03:02:31;;;;;;;;;;;;;;;24.30;56.96;101122.19;5030529;28;19905;-90
2021/07/27 03:04:56;;;;;;;;;;;;;;;24.32;57.00;101120.16;5030253;28;20012;-90
2021/07/27 03:07:31;;;;;;;;;;;;;;;24.16;57.41;101115.31;5012614;28;19957;-90
2021/07/27 03:12:41;;;;;;;;;;;;;;;24.64;55.29;101106.81;5046777;28;19932;-87
2021/07/27 03:15:06;;;;;;;;;;;;;;;24.64;55.34;101112.38;5027833;28;19921;-90
2021/07/27 03:17:32;;;;;;;;;;;;;;;24.09;57.03;101108.66;5027678;28;19928;-89
2021/07/27 03:19:57;;;;;;;;;;;;;;;24.31;56.42;101100.97;5028340;28;19917;-88
2021/07/27 03:22:22;;;;;;;;;;;;;;;24.37;56.12;101103.97;5028305;28;19928;-89
2021/07/27 03:24:48;;;;;;;;;;;;;;;24.82;54.75;101099.41;5028283;28;19921;-90
2021/07/27 03:27:13;;;;;;;;;;;;;;;24.48;55.60;101102.00;5028333;28;19924;-90
2021/07/27 03:29:38;;;;;;;;;;;;;;;24.30;56.52;101104.75;5027644;28;19995;-88
2021/07/27 03:32:04;;;;;;;;;;;;;;;24.28;56.79;101101.25;5028560;28;20440;-89
2021/07/27 03:34:29;;;;;;;;;;;;;;;24.16;57.03;101092.34;5028282;28;19928;-89
2021/07/27 03:36:54;;;;;;;;;;;;;;;23.79;58.14;101096.00;5028275;28;19917;-90
2021/07/27 03:39:19;;;;;;;;;;;;;;;24.05;57.36;101094.28;5028271;28;19937;-89
2021/07/27 03:41:45;;;;;;;;;;;;;;;23.96;56.92;101098.00;5027973;28;19983;-89
2021/07/27 03:44:10;;;;;;;;;;;;;;;23.82;57.49;101092.94;5027129;28;19917;-90
2021/07/27 03:46:35;;;;;;;;;;;;;;;24.29;56.12;101095.59;5052627;28;19917;-88
2021/07/27 03:49:01;;;;;;;;;;;;;;;24.66;54.97;101097.34;5042209;28;20043;-89
2021/07/27 03:51:26;;;;;;;;;;;;;;;24.05;56.71;101097.06;5042379;28;19925;-90
2021/07/27 03:53:51;;;;;;;;;;;;;;;23.59;58.37;101109.91;5038233;28;19917;-88
2021/07/27 03:56:16;;;;;;;;;;;;;;;23.50;58.52;101102.53;5035088;28;19917;-89
2021/07/27 03:58:43;;;;;;;;;;;;;;;23.44;58.85;101108.66;5027975;28;19925;-87
2021/07/27 04:01:08;;;;;;;;;;;;;;;23.38;59.34;101107.38;5027251;28;19924;-88
2021/07/27 04:03:33;;;;;;;;;;;;;;;23.98;57.48;101107.00;5026419;28;19921;-89
2021/07/27 04:06:01;;;;;;;;;;;;;;;23.93;57.67;101103.84;5026128;28;19944;-89
2021/07/27 04:08:27;;;;;;;;;;;;;;;23.62;58.35;101101.31;5027135;28;19928;-90
2021/07/27 04:10:54;;;;;;;;;;;;;;;23.28;59.04;101104.66;5027197;28;20278;-89
2021/07/27 04:13:22;;;;;;;;;;;;;;;23.32;58.42;101103.31;5026256;28;19960;-89
2021/07/27 04:15:47;;;;;;;;;;;;;;;23.11;59.70;101109.03;5026155;28;19939;-88
2021/07/27 04:18:14;;;;;;;;;;;;;;;23.60;58.02;101108.91;5027296;28;20417;-89
2021/07/27 04:20:39;;;;;;;;;;;;;;;23.59;57.22;101101.63;5027199;28;19918;-91
2021/07/27 04:23:05;;;;;;;;;;;;;;;24.14;56.16;101102.66;5027484;28;19963;-89
2021/07/27 04:25:31;;;;;;;;;;;;;;;23.41;57.94;101096.03;5026711;28;19979;-88
2021/07/27 04:27:57;;;;;;;;;;;;;;;23.43;57.80;101090.34;5026674;28;20378;-87
2021/07/27 04:30:22;;;;;;;;;;;;;;;23.66;57.57;101090.84;5022818;28;20274;-90
2021/07/27 04:32:47;;;;;;;;;;;;;;;23.42;57.87;101094.16;5024064;28;19957;-90
2021/07/27 04:35:16;;;;;;;;;;;;;;;23.51;57.28;101096.88;5025587;28;19979;-88
2021/07/27 04:37:41;;;;;;;;;;;;;;;23.28;58.04;101092.72;5025596;28;20333;-89
2021/07/27 04:40:07;;;;;;;;;;;;;;;24.40;54.82;101098.13;5022710;28;19918;-92
2021/07/27 04:42:32;;;;;;;;;;;;;;;23.54;57.20;101087.41;5023394;28;19918;-90
2021/07/27 04:44:57;;;;;;;;;;;;;;;23.44;57.67;101098.47;5023157;28;19917;-88
2021/07/27 04:47:22;;;;;;;;;;;;;;;24.37;54.58;101094.81;5022469;28;19917;-89
2021/07/27 04:49:48;;;;;;;;;;;;;;;23.87;56.38;101097.03;5022131;28;19924;-89
2021/07/27 04:52:20;;;;;;;;;;;;;;;23.44;57.77;101103.16;5023349;28;19952;-87
2021/07/27 04:54:52;;;;;;;;;;;;;;;23.86;56.02;101095.28;5023100;28;19944;-87
2021/07/27 04:57:17;;;;;;;;;;;;;;;23.50;57.39;101097.00;5019871;28;19921;-88
2021/07/27 04:59:45;;;;;;;;;;;;;;;23.31;57.76;101097.94;5021668;28;19917;-89
2021/07/27 05:02:11;;;;;;;;;;;;;;;23.73;56.70;101102.16;5021729;28;19921;-89
2021/07/27 05:04:36;;;;;;;;;;;;;;;22.96;58.48;101100.34;5022683;28;19963;-88
2021/07/27 05:07:05;;;;;;;;;;;;;;;23.39;57.38;101094.47;5018369;28;20326;-88
2021/07/27 05:09:30;;;;;;;;;;;;;;;23.96;55.18;101095.22;5015836;28;19918;-89
2021/07/27 05:11:58;;;;;;;;;;;;;;;23.74;56.42;101103.91;5015393;28;19923;-90
2021/07/27 05:14:24;;;;;;;;;;;;;;;23.19;57.86;101091.75;5016046;28;19918;-89
2021/07/27 05:16:49;;;;;;;;;;;;;;;23.21;57.71;101088.84;5015721;28;20291;-88
2021/07/27 05:19:14;;;;;;;;;;;;;;;23.03;58.22;101083.19;5014811;28;20020;-89
2021/07/27 05:21:40;;;;;;;;;;;;;;;23.67;56.88;101076.88;5015911;28;20028;-89
2021/07/27 05:24:05;;;;;;;;;;;;;;;24.85;52.70;101076.94;5015509;28;20052;-90
2021/07/27 05:26:30;;;;;;;;;;;;;;;23.76;54.98;101080.59;5017431;28;20075;-90
2021/07/27 05:28:56;;;;;;;;;;;;;;;23.76;55.04;101085.28;5024766;28;19941;-89
2021/07/27 05:31:24;;;;;;;;;;;;;;;24.03;54.54;101089.94;5030836;28;19925;-89
2021/07/27 05:33:52;;;;;;;;;;;;;;;24.06;54.32;101084.09;5030105;28;19917;-90
2021/07/27 05:36:17;;;;;;;;;;;;;;;24.12;54.01;101089.00;5031261;28;19918;-89
2021/07/27 05:38:45;;;;;;;;;;;;;;;23.39;56.32;101084.28;5019454;28;19929;-89
2021/07/27 05:41:11;;;;;;;;;;;;;;;23.95;55.08;101087.94;5022626;28;20469;-88
2021/07/27 05:43:47;;;;;;;;;;;;;;;24.33;54.24;101083.19;5024569;28;19944;-90
2021/07/27 05:46:14;;;;;;;;;;;;;;;23.98;54.91;101084.88;5055566;23;19928;-88
2021/07/27 05:48:52;;;;;;;;;;;;;;;23.83;54.79;101089.16;5071412;28;20230;-89
2021/07/27 05:51:47;;;;;;;;;;;;;;;23.82;55.94;101092.94;5061713;28;19917;-90
2021/07/27 13:06:08;;;;;;;;;;;;;;;29.50;40.14;101088.78;5156961;22;19953;-88
2021/07/27 13:08:36;;;;;;;;;;;;;;;29.03;40.87;101098.28;5077275;28;19963;-89
2021/07/27 13:11:01;;;;;;;;;;;;;;;29.47;40.14;101100.31;5078572;28;20373;-90
2021/07/27 13:13:28;;;;;;;;;;;;;;;29.39;40.07;101116.25;5096837;28;19923;-88
2021/07/27 13:15:55;;;;;;;;;;;;;;;28.98;41.29;101118.34;5077266;28;20285;-89
2021/07/27 13:18:21;;;;;;;;;;;;;;;29.58;40.08;101107.31;5080615;28;19919;-88
2021/07/27 13:20:46;;;;;;;;;;;;;;;28.61;41.38;101105.25;5083732;28;19927;-86
2021/07/27 13:23:11;;;;;;;;;;;;;;;28.47;42.09;101109.69;5077264;28;20384;-86
2021/07/27 13:25:36;;;;;;;;;;;;;;;29.13;40.52;101110.03;5095845;28;19916;-88
2021/07/27 13:28:02;;;;;;;;;;;;;;;28.15;42.68;101089.38;5076881;28;19916;-92
2021/07/27 13:30:27;;;;;;;;;;;;;;;28.86;40.35;101097.56;5077516;28;20270;-87
2021/07/27 13:32:59;;;;;;;;;;;;;;;28.99;40.46;101096.94;5079321;28;19997;-93
2021/07/27 13:35:24;;;;;;;;;;;;;;;28.48;41.64;101100.28;5081099;28;19983;-91
2021/07/27 13:37:51;;;;;;;;;;;;;;;29.89;38.91;101092.31;5098853;28;20389;-86
2021/07/27 13:40:16;;;;;;;;;;;;;;;29.19;39.71;101091.69;5098242;28;19909;-91
2021/07/27 13:42:42;;;;;;;;;;;;;;;29.95;38.94;101085.09;5090606;28;19970;-88
2021/07/27 13:45:07;;;;;;;;;;;;;;;29.62;39.79;101096.63;5089494;28;19920;-88
2021/07/27 13:47:33;;;;;;;;;;;;;;;29.26;39.32;101087.13;5081186;28;19916;-93
2021/07/27 13:50:01;;;;;;;;;;;;;;;29.72;38.29;101086.06;5079933;28;19951;-92
2021/07/27 13:52:27;;;;;;;;;;;;;;;30.48;37.49;101079.28;5097412;28;19924;-90
2021/07/27 13:54:53;;;;;;;;;;;;;;;29.20;38.85;101082.28;5077790;28;19999;-92
2021/07/27 13:57:19;;;;;;;;;;;;;;;29.08;39.37;101078.22;5075432;28;19928;-90
2021/07/27 13:59:46;;;;;;;;;;;;;;;27.94;41.85;101082.47;5077413;28;19912;-92
2021/07/27 14:02:11;;;;;;;;;;;;;;;27.93;41.53;101071.53;5078209;28;19916;-91
2021/07/27 14:04:36;;;;;;;;;;;;;;;29.10;39.36;101070.56;5077176;28;20453;-89
2021/07/27 14:07:02;;;;;;;;;;;;;;;28.94;39.74;101066.88;5076505;28;19927;-87
2021/07/27 14:09:27;;;;;;;;;;;;;;;29.30;39.14;101059.72;5074972;28;19920;-85
2021/07/27 14:11:53;;;;;;;;;;;;;;;28.87;39.72;101071.47;5078465;28;19916;-87
2021/07/27 14:14:18;;;;;;;;;;;;;;;28.15;41.12;101067.09;5075516;28;19964;-88
2021/07/27 14:16:43;;;;;;;;;;;;;;;28.79;40.01;101057.59;5075969;28;20499;-88
2021/07/27 14:19:08;;;;;;;;;;;;;;;28.22;41.30;101047.78;5076705;28;20442;-88
2021/07/27 14:21:34;;;;;;;;;;;;;;;29.22;39.29;101045.91;5094784;28;20357;-85
2021/07/27 14:23:59;;;;;;;;;;;;;;;30.10;37.39;101037.66;5076133;28;19983;-85
2021/07/27 14:26:26;;;;;;;;;;;;;;;29.25;39.24;101042.75;5077824;28;20006;-89
2021/07/27 14:28:51;;;;;;;;;;;;;;;28.70;39.82;101030.88;5080985;28;19924;-91
2021/07/27 14:31:17;;;;;;;;;;;;;;;29.27;39.54;101035.91;5080204;28;19920;-83
2021/07/27 14:33:42;;;;;;;;;;;;;;;29.54;38.37;101029.84;5079847;28;20294;-86
2021/07/27 14:36:08;;;;;;;;;;;;;;;30.07;37.82;101026.88;5079642;28;19923;-89
2021/07/27 14:38:37;;;;;;;;;;;;;;;29.38;38.59;101033.69;5081067;28;20328;-88
2021/07/27 14:41:02;;;;;;;;;;;;;;;29.07;39.46;101026.34;5079665;28;19916;-84
2021/07/27 14:43:27;;;;;;;;;;;;;;;29.03;40.06;101031.44;5077716;28;19970;-86
2021/07/27 14:45:53;;;;;;;;;;;;;;;30.61;37.40;101029.16;5097858;28;19916;-88
2021/07/27 14:48:20;;;;;;;;;;;;;;;30.28;37.56;101020.44;5097768;28;20031;-83
2021/07/27 14:50:45;;;;;;;;;;;;;;;30.27;37.47;101019.59;5079436;28;19916;-87
2021/07/27 14:53:10;;;;;;;;;;;;;;;29.55;38.02;101012.94;5082851;28;19916;-83
2021/07/27 14:55:36;;;;;;;;;;;;;;;30.34;37.90;101020.50;5085066;28;19924;-87
2021/07/27 14:58:01;;;;;;;;;;;;;;;28.87;39.59;101018.56;5079329;28;19927;-85
2021/07/27 15:00:26;;;;;;;;;;;;;;;28.78;40.27;101011.34;5097587;28;19916;-88
2021/07/27 15:02:51;;;;;;;;;;;;;;;29.08;39.30;101012.25;5096805;28;19924;-85
2021/07/27 15:05:17;;;;;;;;;;;;;;;28.83;40.79;101014.41;5096865;28;19925;-88
2021/07/27 15:07:42;;;;;;;;;;;;;;;28.01;41.99;101006.72;5096869;28;19916;-88
2021/07/27 15:10:10;;;;;;;;;;;;;;;29.06;39.87;101005.97;5097198;28;20389;-85
2021/07/27 15:12:36;;;;;;;;;;;;;;;29.29;40.07;101005.06;5096608;28;19919;-88
2021/07/27 15:15:01;;;;;;;;;;;;;;;28.95;40.32;100998.97;5079484;28;19939;-87
2021/07/27 15:17:26;;;;;;;;;;;;;;;29.09;39.85;100988.88;5098450;28;19916;-88
2021/07/27 15:19:51;;;;;;;;;;;;;;;28.75;41.57;100983.88;5081846;28;19919;-85
2021/07/27 15:22:16;;;;;;;;;;;;;;;29.08;40.48;100980.72;5100700;28;20050;-87
2021/07/27 15:24:42;;;;;;;;;;;;;;;28.21;43.19;100985.69;5082149;28;19930;-86
2021/07/27 15:27:07;;;;;;;;;;;;;;;28.52;42.52;100995.88;5080848;28;20286;-83
2021/07/27 15:29:32;;;;;;;;;;;;;;;28.07;44.10;100984.59;5064845;28;20025;-89
2021/07/27 15:31:58;;;;;;;;;;;;;;;28.08;43.68;100999.34;5099308;28;20020;-87
2021/07/27 15:34:23;;;;;;;;;;;;;;;28.63;42.99;100986.25;5082575;28;19924;-85
2021/07/27 15:36:51;;;;;;;;;;;;;;;27.02;45.23;101002.38;5079807;28;20387;-87
2021/07/27 15:39:16;;;;;;;;;;;;;;;26.81;44.78;100985.44;5096887;28;19921;-83
2021/07/27 15:41:41;;;;;;;;;;;;;;;25.83;46.65;101000.94;5077616;28;19924;-84
2021/07/27 15:44:06;;;;;;;;;;;;;;;25.73;47.57;100994.72;5078060;28;19927;-90
2021/07/27 15:46:32;;;;;;;;;;;;;;;25.74;49.84;100989.00;5095979;28;20284;-86
2021/07/27 15:48:57;;;;;;;;;;;;;;;25.28;53.87;100988.44;5078094;28;19920;-85
2021/07/27 15:51:22;;;;;;;;;;;;;;;26.01;50.75;100967.56;5078516;28;19999;-86
2021/07/27 15:53:48;;;;;;;;;;;;;;;26.64;47.97;100974.34;5079030;28;20011;-87
2021/07/27 15:56:13;;;;;;;;;;;;;;;26.10;48.79;100972.09;5077773;28;20022;-87
2021/07/27 15:58:38;;;;;;;;;;;;;;;25.65;49.79;100962.28;5078548;28;19916;-85
2021/07/27 16:01:04;;;;;;;;;;;;;;;25.36;50.89;100974.66;5078452;28;19924;-88
2021/07/27 16:03:29;;;;;;;;;;;;;;;24.92;52.08;100969.22;5078904;28;19999;-87
2021/07/27 16:05:54;;;;;;;;;;;;;;;25.87;49.81;100962.69;5073130;28;19932;-88
2021/07/27 16:08:19;;;;;;;;;;;;;;;25.56;50.47;100961.41;5093295;28;20007;-86
2021/07/27 16:10:45;;;;;;;;;;;;;;;25.64;49.67;100966.97;5077672;28;19946;-86
2021/07/27 16:13:10;;;;;;;;;;;;;;;26.08;48.46;100962.22;5076866;28;19920;-86
2021/07/27 16:15:37;;;;;;;;;;;;;;;26.43;46.99;100974.88;5077160;28;19917;-84
2021/07/27 16:18:05;;;;;;;;;;;;;;;25.56;49.33;100968.84;5076035;28;19941;-85
2021/07/27 16:20:30;;;;;;;;;;;;;;;26.65;46.12;100966.91;5077089;28;20000;-87
2021/07/27 16:22:55;;;;;;;;;;;;;;;25.62;48.92;100968.16;5097565;28;19924;-87
2021/07/27 16:25:22;;;;;;;;;;;;;;;25.92;48.66;100963.03;5081633;28;19916;-86
2021/07/27 16:27:48;;;;;;;;;;;;;;;25.83;47.56;100976.88;5078507;28;19954;-88
2021/07/27 16:30:13;;;;;;;;;;;;;;;26.12;46.91;100985.81;5079077;28;19946;-87
2021/07/27 16:32:38;;;;;;;;;;;;;;;26.48;46.37;100996.53;5098748;28;19952;-87
2021/07/27 16:35:09;;;;;;;;;;;;;;;25.45;48.08;101006.91;5079977;28;20427;-88
2021/07/27 16:37:35;;;;;;;;;;;;;;;25.53;46.67;100995.00;5081729;28;20022;-89
2021/07/27 16:40:00;;;;;;;;;;;;;;;25.77;44.92;101013.59;5080323;28;19970;-87
2021/07/27 16:42:25;;;;;;;;;;;;;;;25.27;46.67;101028.22;5096865;28;19917;-88
2021/07/27 16:44:51;;;;;;;;;;;;;;;25.32;47.02;101011.16;5078849;28;19916;-87
2021/07/27 16:47:16;;;;;;;;;;;;;;;25.86;48.03;101016.38;5079555;28;19983;-88
2021/07/27 16:49:42;;;;;;;;;;;;;;;25.21;51.33;101026.13;5079748;28;19923;-85
2021/07/27 16:52:07;;;;;;;;;;;;;;;25.13;53.33;101026.94;5090537;28;19950;-86
2021/07/27 16:54:33;;;;;;;;;;;;;;;24.88;54.24;101024.03;5101118;28;19920;-89
2021/07/27 16:56:58;;;;;;;;;;;;;;;23.93;57.47;101018.16;5099008;28;19927;-87
2021/07/27 16:59:24;;;;;;;;;;;;;;;24.58;56.66;101015.16;5110556;28;19932;-90
2021/07/27 17:01:55;;;;;;;;;;;;;;;24.62;56.80;101009.31;5089757;28;19977;-88
2021/07/27 17:04:21;;;;;;;;;;;;;;;23.64;58.82;101021.97;5083343;28;19932;-91
2021/07/27 17:06:46;;;;;;;;;;;;;;;24.68;55.17;101011.44;5084724;28;19917;-91
2021/07/27 17:09:28;;;;;;;;;;;;;;;24.27;57.73;101006.38;5065555;28;20010;-90
2021/07/27 17:11:57;;;;;;;;;;;;;;;25.63;53.63;101003.16;5080694;28;20356;-91
2021/07/27 17:14:22;;;;;;;;;;;;;;;25.12;54.45;101006.72;5082969;28;19966;-90
2021/07/27 17:16:47;;;;;;;;;;;;;;;24.25;57.61;100997.41;5080639;28;19916;-94
2021/07/27 17:19:13;;;;;;;;;;;;;;;25.05;55.69;100993.69;5065806;28;19920;-94
2021/07/27 17:21:47;;;;;;;;;;;;;;;25.15;54.07;100999.97;5082476;28;19916;-94
2021/07/27 17:24:12;;;;;;;;;;;;;;;25.17;55.51;100997.03;5098560;28;19904;-89
2021/07/27 17:26:37;;;;;;;;;;;;;;;25.52;53.24;100984.94;5081530;28;20284;-91
2021/07/27 17:29:02;;;;;;;;;;;;;;;26.17;51.43;100991.69;5081531;28;19916;-90
2021/07/27 17:31:31;;;;;;;;;;;;;;;25.91;53.69;100989.03;5082027;28;19987;-92
2021/07/27 17:34:02;;;;;;;;;;;;;;;25.97;51.61;100977.25;5080637;28;19924;-95
2021/07/27 17:36:27;;;;;;;;;;;;;;;26.12;52.17;100978.34;5064046;28;19930;-91
2021/07/27 17:38:52;;;;;;;;;;;;;;;27.05;49.84;100990.97;5079396;28;20334;-92
2021/07/27 17:41:18;;;;;;;;;;;;;;;26.05;50.99;100995.84;5078955;28;19920;-89
2021/07/27 17:43:43;;;;;;;;;;;;;;;24.62;55.98;101001.00;5078023;28;19923;-92
2021/07/27 17:46:08;;;;;;;;;;;;;;;24.99;54.39;101002.66;5079882;28;20398;-89
2021/07/27 17:48:34;;;;;;;;;;;;;;;25.54;53.67;100999.47;5082440;28;19916;-90
2021/07/27 17:51:01;;;;;;;;;;;;;;;25.67;52.85;100992.63;5081428;28;20619;-90
2021/07/27 17:53:26;;;;;;;;;;;;;;;25.16;54.05;100998.06;5079506;28;20019;-87
2021/07/27 17:55:55;;;;;;;;;;;;;;;25.11;54.43;101004.97;5079134;28;20353;-90
2021/07/27 17:58:21;;;;;;;;;;;;;;;25.86;53.25;101002.53;5080234;28;20398;-89
2021/07/27 18:00:47;;;;;;;;;;;;;;;25.09;55.34;101020.00;5086054;28;19928;-90
2021/07/27 18:03:12;;;;;;;;;;;;;;;24.90;56.02;101010.03;5088528;28;19920;-88
2021/07/27 18:05:37;;;;;;;;;;;;;;;25.43;54.70;101002.56;5084164;28;19932;-89
2021/07/27 18:08:05;;;;;;;;;;;;;;;25.43;54.80;101010.88;5087862;28;19938;-88
2021/07/27 18:10:31;;;;;;;;;;;;;;;25.31;55.43;101013.06;5084389;28;19994;-86
2021/07/27 18:12:58;;;;;;;;;;;;;;;24.20;59.32;101006.19;5083718;28;19959;-87
2021/07/27 18:15:24;;;;;;;;;;;;;;;25.07;56.94;101008.22;5082127;28;19920;-88
2021/07/27 18:18:05;;;;;;;;;;;;;;;24.89;56.90;101011.06;5082745;28;19938;-90
2021/07/27 18:20:34;;;;;;;;;;;;;;;25.37;55.67;101004.09;5088100;22;19920;-91
2021/07/27 18:23:03;;;;;;;;;;;;;;;25.55;55.18;101001.22;5063203;28;19935;-89
2021/07/27 18:25:28;;;;;;;;;;;;;;;25.55;55.79;101005.91;5062536;28;19940;-89
2021/07/27 18:27:57;;;;;;;;;;;;;;;24.98;56.60;101010.06;5062893;28;20307;-91
2021/07/27 18:30:22;;;;;;;;;;;;;;;25.54;54.75;100998.63;5063278;28;19916;-90
2021/07/27 18:32:59;;;;;;;;;;;;;;;25.32;55.65;101002.84;5062233;28;19924;-89
2021/07/27 18:35:37;;;;;;;;;;;;;;;23.89;58.86;101005.69;5069682;22;19974;-90
2021/07/27 18:38:04;;;;;;;;;;;;;;;24.10;58.58;101004.53;5061865;28;19940;-90
2021/07/27 18:40:30;;;;;;;;;;;;;;;24.97;56.22;101008.38;5061224;28;19924;-90
2021/07/27 18:42:55;;;;;;;;;;;;;;;24.68;56.73;101003.13;5062402;28;19916;-91
2021/07/27 18:45:20;;;;;;;;;;;;;;;24.61;57.23;101002.91;5062792;28;20007;-93
2021/07/27 18:47:46;;;;;;;;;;;;;;;24.97;55.27;101001.94;5062872;28;19920;-90
2021/07/27 18:50:16;;;;;;;;;;;;;;;24.57;56.60;101004.22;5063358;28;19921;-93
2021/07/27 18:52:44;;;;;;;;;;;;;;;25.43;53.96;101008.09;5062765;28;19964;-91
2021/07/27 18:55:09;;;;;;;;;;;;;;;25.73;53.55;101009.41;5062048;28;20370;-91
2021/07/27 18:57:35;;;;;;;;;;;;;;;25.01;54.72;101009.75;5062787;28;19913;-92
2021/07/27 19:00:00;;;;;;;;;;;;;;;25.44;54.30;101004.31;5063927;28;19912;-92
2021/07/27 19:02:26;;;;;;;;;;;;;;;25.49;53.52;100998.25;5063043;28;20259;-90
2021/07/27 19:04:51;;;;;;;;;;;;;;;25.15;55.05;100999.97;5063591;28;19920;-90
2021/07/27 19:07:16;;;;;;;;;;;;;;;24.57;55.77;101007.00;5062686;28;19920;-91
2021/07/27 19:09:42;;;;;;;;;;;;;;;24.84;55.70;101007.94;5062407;28;19917;-92
2021/07/27 19:12:07;;;;;;;;;;;;;;;24.38;56.68;101003.41;5062470;28;20429;-91
2021/07/27 19:14:33;;;;;;;;;;;;;;;24.31;56.55;101006.97;5062511;28;19916;-91
2021/07/27 19:16:58;;;;;;;;;;;;;;;24.88;55.04;101004.66;5066942;28;19917;-90
2021/07/27 19:19:24;;;;;;;;;;;;;;;25.04;54.95;101008.56;5066235;28;20384;-88
2021/07/27 19:21:49;;;;;;;;;;;;;;;25.13;54.81;101002.03;5063295;28;19927;-93
2021/07/27 19:24:14;;;;;;;;;;;;;;;24.99;54.45;101005.44;5062786;28;20420;-90
2021/07/27 19:26:40;;;;;;;;;;;;;;;24.62;55.78;100999.09;5051518;28;19916;-92
2021/07/27 19:29:06;;;;;;;;;;;;;;;24.38;56.34;101008.03;5050185;28;19917;-91
2021/07/27 19:31:31;;;;;;;;;;;;;;;24.47;57.07;101008.97;5051131;28;20282;-90
2021/07/27 19:33:56;;;;;;;;;;;;;;;24.01;57.50;101001.66;5061769;28;19917;-90
2021/07/27 19:36:22;;;;;;;;;;;;;;;24.92;55.79;101005.19;5071305;28;19932;-88
2021/07/27 19:38:47;;;;;;;;;;;;;;;24.82;55.88;101001.66;5075200;28;19940;-90
2021/07/27 19:41:16;;;;;;;;;;;;;;;24.94;54.93;101009.53;5074248;28;19921;-90
2021/07/27 19:43:55;;;;;;;;;;;;;;;24.77;55.10;101003.03;5077293;28;19975;-90
2021/07/27 19:51:46;;;;;;;;;;;;;;;24.79;55.21;101004.75;5078565;28;19924;-93
2021/07/27 19:54:14;;;;;;;;;;;;;;;24.42;56.88;101004.78;5073559;28;19972;-91
2021/07/27 19:56:39;;;;;;;;;;;;;;;24.37;56.80;101009.09;5070458;28;20055;-90
2021/07/27 19:59:04;;;;;;;;;;;;;;;24.59;56.64;101016.03;5071220;28;19921;-90
2021/07/27 20:01:30;;;;;;;;;;;;;;;24.05;57.82;101013.25;5071426;28;19917;-91
2021/07/27 20:03:58;;;;;;;;;;;;;;;23.89;58.40;101020.34;5070471;28;19901;-93
2021/07/27 20:06:23;;;;;;;;;;;;;;;24.24;57.80;101017.78;5067207;28;19921;-92
2021/07/27 20:08:49;;;;;;;;;;;;;;;24.29;57.49;101020.06;5079033;28;19920;-89
2021/07/27 20:11:14;;;;;;;;;;;;;;;24.66;56.29;101022.66;5079837;28;19976;-90
2021/07/27 20:13:39;;;;;;;;;;;;;;;23.74;58.64;101021.03;5077390;28;19924;-88